Time;durP1;ratioP1;P1;durP2;ratioP2;P2;SDS_P1;SDS_P2;PMS_P1;PMS_P2;Temp;Humidity;BMP_temperature;BMP_pressure;BME280_temperature;BME280_humidity;BME280_pressure;Samples;Min_cycle;Max_cycle;Signal;HPM_P1;HPM_P2
2022/05/13 00:01:17;;;;;;;3.63;1.40;;;;;;;19.50;nan;100760.13;5036060;28;20025;-80
2022/05/13 00:03:42;;;;;;;4.35;1.25;;;;;;;19.47;nan;100755.16;5038062;28;20052;-80
2022/05/13 00:06:07;;;;;;;2.45;1.00;;;;;;;19.40;nan;100760.53;5035114;28;20037;-80
2022/05/13 00:08:33;;;;;;;2.40;1.13;;;;;;;19.38;nan;100748.34;5039671;28;20059;-80
2022/05/13 00:11:00;;;;;;;2.15;1.02;;;;;;;19.35;nan;100749.56;5034793;28;20038;-81
2022/05/13 00:13:26;;;;;;;1.98;0.98;;;;;;;19.27;nan;100750.59;5040940;28;20037;-80
2022/05/13 00:15:52;;;;;;;2.22;1.10;;;;;;;19.23;nan;100749.34;5020409;28;20041;-81
2022/05/13 00:18:18;;;;;;;2.55;1.08;;;;;;;19.15;nan;100749.53;5042361;28;20482;-81
2022/05/13 00:20:44;;;;;;;2.67;1.00;;;;;;;19.14;nan;100760.47;5020744;28;20052;-80
2022/05/13 00:23:09;;;;;;;1.53;0.80;;;;;;;19.27;nan;100752.47;5040594;28;20904;-81
2022/05/13 00:25:36;;;;;;;3.03;1.00;;;;;;;19.21;nan;100754.13;5039591;28;20080;-81
2022/05/13 00:28:03;;;;;;;2.88;1.00;;;;;;;19.18;nan;100751.00;5039788;28;20037;-80
2022/05/13 00:30:31;;;;;;;3.47;1.10;;;;;;;19.16;nan;100747.69;5039425;28;20040;-80
2022/05/13 00:32:57;;;;;;;2.42;1.00;;;;;;;19.14;nan;100747.91;5040257;28;20049;-81
2022/05/13 00:35:22;;;;;;;3.38;1.00;;;;;;;19.12;nan;100743.78;5043551;28;20056;-81
2022/05/13 00:37:48;;;;;;;1.77;0.80;;;;;;;19.11;nan;100742.94;5037562;28;20038;-81
2022/05/13 00:40:15;;;;;;;2.13;1.17;;;;;;;19.06;nan;100738.19;5044752;28;20108;-81
2022/05/13 00:42:40;;;;;;;2.53;1.10;;;;;;;19.02;nan;100742.31;5034238;28;20056;-81
2022/05/13 00:45:08;;;;;;;4.40;1.20;;;;;;;18.97;nan;100742.06;5021362;28;20037;-81
2022/05/13 00:47:33;;;;;;;2.60;1.15;;;;;;;18.99;nan;100753.41;5032044;28;20030;-81
2022/05/13 00:50:00;;;;;;;3.17;1.33;;;;;;;18.95;nan;100746.81;5022698;28;20037;-81
2022/05/13 00:52:27;;;;;;;2.13;1.00;;;;;;;18.92;nan;100749.88;5040287;28;20527;-81
2022/05/13 00:54:53;;;;;;;5.80;1.20;;;;;;;18.94;nan;100747.84;5032658;28;20087;-81
2022/05/13 00:57:21;;;;;;;4.18;1.40;;;;;;;18.93;nan;100737.34;5038261;28;20029;-81
2022/05/13 00:59:48;;;;;;;3.15;1.30;;;;;;;18.91;nan;100747.44;5041772;28;20107;-81
2022/05/13 01:02:13;;;;;;;1.98;1.02;;;;;;;18.87;nan;100742.44;5034722;28;20452;-81
2022/05/13 01:04:39;;;;;;;3.17;1.10;;;;;;;18.87;nan;100739.78;5036152;28;20041;-80
2022/05/13 01:07:17;;;;;;;2.95;1.15;;;;;;;18.86;nan;100745.34;5021600;28;20420;-80
2022/05/13 01:09:51;;;;;;;2.38;1.10;;;;;;;18.82;nan;100742.22;5028135;28;20515;-81
2022/05/13 01:12:21;;;;;;;3.75;1.48;;;;;;;18.76;nan;100743.06;5035750;28;20037;-80
2022/05/13 01:14:52;;;;;;;4.18;1.30;;;;;;;18.73;nan;100747.94;5016262;28;20103;-80
2022/05/13 01:20:13;;;;;;;3.58;1.25;;;;;;;18.68;nan;100757.38;5027940;28;20098;-81
2022/05/13 01:22:51;;;;;;;3.22;1.13;;;;;;;18.68;nan;100752.03;5036175;28;20029;-80
2022/05/13 01:25:20;;;;;;;4.15;1.35;;;;;;;18.65;nan;100749.75;5031679;28;20426;-80
2022/05/13 01:27:47;;;;;;;2.45;1.00;;;;;;;18.63;nan;100754.47;5035945;28;20087;-79
2022/05/13 01:30:17;;;;;;;2.10;1.00;;;;;;;18.55;nan;100748.50;5036382;28;20072;-80
2022/05/13 01:32:43;;;;;;;2.00;1.00;;;;;;;18.63;nan;100745.63;5017895;28;20471;-82
2022/05/13 01:35:09;;;;;;;2.60;1.10;;;;;;;18.64;nan;100739.25;5042258;28;20403;-82
2022/05/13 01:37:34;;;;;;;2.03;0.88;;;;;;;18.62;nan;100744.81;5037741;28;20414;-82
2022/05/13 01:40:04;;;;;;;1.87;0.80;;;;;;;18.63;nan;100748.31;5038682;28;20415;-81
2022/05/13 01:42:31;;;;;;;4.47;1.23;;;;;;;18.53;nan;100750.53;5047000;28;20061;-80
2022/05/13 01:44:57;;;;;;;2.83;1.02;;;;;;;18.44;nan;100739.97;5032867;28;20042;-80
2022/05/13 01:47:24;;;;;;;2.45;0.88;;;;;;;18.42;nan;100739.38;5038260;28;20368;-79
2022/05/13 01:49:50;;;;;;;2.03;1.00;;;;;;;18.34;nan;100742.19;5033959;28;20030;-80
2022/05/13 01:52:15;;;;;;;3.30;1.02;;;;;;;18.25;nan;100746.88;5024857;28;20537;-79
2022/05/13 01:54:40;;;;;;;;;;;;;;;18.08;nan;100753.56;5038174;28;20244;-81
2022/05/13 01:57:05;;;;;;;;;;;;;;;17.98;nan;100751.22;5039328;28;19932;-80
2022/05/13 01:59:31;;;;;;;2.45;1.20;;;;;;;17.89;nan;100744.38;5039658;28;19957;-81
2022/05/13 02:01:56;;;;;;;;;;;;;;;17.75;nan;100734.56;5039167;28;20048;-79
2022/05/13 02:04:21;;;;;;;;;;;;;;;17.62;nan;100736.09;5040365;28;19971;-80
2022/05/13 02:06:46;;;;;;;;;;;;;;;17.50;nan;100732.31;5032940;28;19917;-81
2022/05/13 02:09:12;;;;;;;;;;;;;;;17.35;nan;100736.88;5027645;28;19966;-81
2022/05/13 02:11:37;;;;;;;;;;;;;;;17.22;nan;100734.09;5036362;28;19932;-81
2022/05/13 02:14:04;;;;;;;;;;;;;;;17.08;nan;100727.78;5038998;28;19924;-81
2022/05/13 02:16:29;;;;;;;2.40;1.20;;;;;;;17.00;nan;100742.09;5033753;28;20372;-79
2022/05/13 02:18:55;;;;;;;2.17;1.00;;;;;;;16.91;nan;100736.03;5036782;28;20080;-81
2022/05/13 02:21:20;;;;;;;1.88;0.95;;;;;;;16.85;nan;100738.59;5019083;28;20093;-81
2022/05/13 02:23:46;;;;;;;2.00;1.00;;;;;;;16.76;nan;100736.03;5039159;28;20245;-80
2022/05/13 02:26:12;;;;;;;;;;;;;;;16.67;nan;100731.81;5046475;28;20029;-81
2022/05/13 02:28:38;;;;;;;;;;;;;;;16.60;nan;100730.91;5040422;28;19967;-81
2022/05/13 02:31:04;;;;;;;3.10;1.50;;;;;;;16.57;nan;100725.94;5044479;28;19917;-81
2022/05/13 02:33:31;;;;;;;2.63;1.20;;;;;;;16.67;nan;100728.31;5033370;28;20426;-81
2022/05/13 02:35:57;;;;;;;2.35;1.05;;;;;;;16.72;nan;100732.06;5042002;28;20426;-81
2022/05/13 02:38:22;;;;;;;1.95;0.90;;;;;;;16.75;nan;100737.03;5023257;28;21015;-81
2022/05/13 02:43:32;;;;;;;4.43;1.60;;;;;;;16.53;nan;100736.16;5038038;28;20032;-81
2022/05/13 02:45:58;;;;;;;4.03;1.50;;;;;;;16.51;nan;100738.16;5051935;28;20041;-81
2022/05/13 02:48:24;;;;;;;2.10;1.10;;;;;;;16.52;nan;100752.38;5052926;28;20029;-81
2022/05/13 02:50:50;;;;;;;3.15;1.20;;;;;;;16.54;nan;100755.66;5038994;28;20029;-81
2022/05/13 02:53:15;;;;;;;3.13;1.33;;;;;;;16.57;nan;100757.97;5026965;28;20040;-80
2022/05/13 02:55:41;;;;;;;2.20;1.17;;;;;;;16.71;nan;100754.47;5045471;28;20700;-80
2022/05/13 02:58:06;;;;;;;3.05;1.10;;;;;;;16.65;nan;100757.03;5040676;28;20064;-80
2022/05/13 03:00:32;;;;;;;2.00;1.00;;;;;;;16.63;nan;100759.88;5041784;28;20037;-81
2022/05/13 03:02:58;;;;;;;3.10;1.30;;;;;;;16.61;nan;100756.56;5038979;28;20053;-81
2022/05/13 03:05:24;;;;;;;3.35;1.38;;;;;;;16.64;nan;100755.41;5041118;28;20033;-81
2022/05/13 03:07:50;;;;;;;2.92;1.20;;;;;;;16.61;nan;100751.22;5037332;28;20033;-81
2022/05/13 03:10:16;;;;;;;3.70;1.45;;;;;;;16.56;nan;100758.97;5040174;28;20041;-81
2022/05/13 03:12:41;;;;;;;3.60;1.50;;;;;;;16.56;nan;100758.97;5045676;28;20033;-81
2022/05/13 03:15:08;;;;;;;4.50;1.20;;;;;;;16.53;nan;100762.00;5038668;28;20348;-80
2022/05/13 03:17:35;;;;;;;3.08;1.27;;;;;;;16.53;nan;100767.34;5022587;28;20029;-81
2022/05/13 03:20:00;;;;;;;1.95;0.98;;;;;;;16.53;nan;100768.19;5047478;28;20103;-80
2022/05/13 03:22:26;;;;;;;1.05;0.80;;;;;;;16.52;nan;100771.88;5037390;28;20352;-81
2022/05/13 03:24:51;;;;;;;3.35;1.23;;;;;;;16.50;nan;100773.06;5022098;28;20034;-81
2022/05/13 03:27:17;;;;;;;3.25;1.20;;;;;;;16.47;nan;100768.09;5041737;28;20415;-80
2022/05/13 03:29:42;;;;;;;2.47;1.25;;;;;;;16.44;nan;100773.78;5025696;28;20064;-80
2022/05/13 03:32:08;;;;;;;3.65;1.35;;;;;;;16.42;nan;100771.31;5044025;28;20071;-80
2022/05/13 03:34:37;;;;;;;2.00;1.00;;;;;;;16.41;nan;100766.16;5045616;28;20041;-80
2022/05/13 03:37:03;;;;;;;4.05;1.50;;;;;;;16.32;nan;100770.75;5025271;28;20034;-81
2022/05/13 03:39:29;;;;;;;1.90;1.17;;;;;;;16.28;nan;100774.78;5040956;28;20113;-80
2022/05/13 03:41:54;;;;;;;2.75;1.15;;;;;;;16.21;nan;100773.88;5037031;28;20065;-80
2022/05/13 03:44:20;;;;;;;2.17;1.20;;;;;;;16.11;nan;100768.78;5033411;28;20041;-80
2022/05/13 03:46:45;;;;;;;3.17;1.45;;;;;;;16.00;nan;100766.59;5019803;28;20053;-81
2022/05/13 03:49:11;;;;;;;2.22;1.08;;;;;;;15.90;nan;100772.19;5027319;28;20110;-81
2022/05/13 03:51:36;;;;;;;2.92;1.50;;;;;;;15.78;nan;100777.13;5039895;28;20034;-81
2022/05/13 03:54:02;;;;;;;4.07;1.33;;;;;;;15.65;nan;100772.34;5042952;28;20053;-81
2022/05/13 03:56:28;;;;;;;3.75;1.40;;;;;;;15.58;nan;100779.41;5032936;28;20090;-81
2022/05/13 03:58:53;;;;;;;2.90;1.40;;;;;;;15.54;nan;100782.59;5035597;28;20077;-81
2022/05/13 04:01:18;;;;;;;3.40;1.48;;;;;;;15.47;nan;100785.16;5036110;28;20045;-81
2022/05/13 04:03:44;;;;;;;2.03;1.00;;;;;;;15.40;nan;100782.38;5038401;28;20029;-81
2022/05/13 04:08:56;;;;;;;1.85;1.00;;;;;;;15.47;nan;100793.97;5036265;28;20414;-81
2022/05/13 04:11:21;;;;;;;4.13;1.67;;;;;;;15.43;nan;100802.50;5037021;28;20373;-81
2022/05/13 04:16:30;;;;;;;4.60;2.08;;;;;;;15.48;nan;100795.63;5039843;28;20036;-81
2022/05/13 04:18:58;;;;;;;4.35;1.80;;;;;;;15.46;nan;100797.63;5039516;28;20049;-81
2022/05/13 04:21:28;;;;;;;3.08;1.40;;;;;;;15.47;nan;100796.66;5016701;28;20033;-81
2022/05/13 04:23:54;;;;;;;;;;;;;;;15.46;nan;100800.31;5021395;28;20511;-81
2022/05/13 04:26:20;;;;;;;3.53;1.75;;;;;;;15.47;nan;100815.31;5041087;28;19917;-81
2022/05/13 04:28:48;;;;;;;2.38;1.30;;;;;;;15.49;nan;100813.28;5039762;28;20265;-81
2022/05/13 04:31:16;;;;;;;3.25;1.40;;;;;;;15.55;nan;100806.41;5041960;28;20084;-81
2022/05/13 04:33:42;;;;;;;2.50;1.40;;;;;;;15.61;nan;100802.19;5037257;28;20677;-81
2022/05/13 04:36:07;;;;;;;3.78;1.40;;;;;;;15.60;nan;100809.38;5038505;28;20044;-81
2022/05/13 04:38:34;;;;;;;2.88;1.60;;;;;;;15.58;nan;100811.38;5032435;28;20120;-81
2022/05/13 04:43:47;;;;;;;5.38;1.80;;;;;;;15.58;nan;100815.88;5032830;28;20107;-80
2022/05/13 04:46:12;;;;;;;4.57;1.70;;;;;;;15.64;nan;100808.03;5045129;28;20127;-80
2022/05/13 04:48:37;;;;;;;3.17;1.30;;;;;;;15.69;nan;100818.16;5033075;28;20133;-80
2022/05/13 04:51:03;;;;;;;2.50;1.35;;;;;;;15.73;nan;100805.31;5023074;28;20511;-81
2022/05/13 04:53:32;;;;;;;4.45;1.60;;;;;;;15.67;nan;100814.84;5045556;28;20438;-82
2022/05/13 04:55:58;;;;;;;4.20;2.00;;;;;;;15.64;nan;100817.88;5027803;28;20501;-80
2022/05/13 04:58:24;;;;;;;2.50;1.40;;;;;;;15.66;nan;100807.81;5035902;28;20029;-81
2022/05/13 05:00:51;;;;;;;4.28;1.45;;;;;;;15.69;nan;100812.81;5043802;28;20033;-81
2022/05/13 05:03:18;;;;;;;3.35;1.23;;;;;;;15.69;nan;100818.97;5020616;28;20233;-81
2022/05/13 05:05:44;;;;;;;2.15;1.20;;;;;;;15.72;nan;100812.50;5034927;28;20029;-81
2022/05/13 05:08:12;;;;;;;1.85;1.20;;;;;;;15.75;nan;100809.44;5018900;28;20483;-81
2022/05/13 05:10:38;;;;;;;5.05;1.55;;;;;;;15.73;nan;100818.63;5041884;28;20064;-81
2022/05/13 05:13:06;;;;;;;2.30;1.30;;;;;;;15.74;nan;100821.13;5017014;28;20029;-80
2022/05/13 05:15:32;;;;;;;3.58;1.30;;;;;;;15.76;nan;100823.63;5034981;28;20040;-80
2022/05/13 05:17:58;;;;;;;3.03;1.42;;;;;;;15.79;nan;100817.94;5014206;28;20065;-81
2022/05/13 05:20:23;;;;;;;2.15;1.00;;;;;;;15.82;nan;100823.72;5019787;28;20041;-81
2022/05/13 05:22:49;;;;;;;3.38;1.20;;;;;;;15.87;nan;100832.06;5023726;28;20038;-82
2022/05/13 05:25:16;;;;;;;2.63;1.17;;;;;;;15.95;nan;100833.81;5031961;28;20048;-81
2022/05/13 05:27:41;;;;;;;1.88;1.10;;;;;;;16.07;nan;100834.22;5043620;28;20036;-80
2022/05/13 05:30:09;;;;;;;3.55;1.23;;;;;;;16.19;nan;100840.78;5029172;28;20045;-81
2022/05/13 05:32:37;;;;;;;1.98;1.00;;;;;;;16.34;nan;100838.94;5059538;28;20030;-82
2022/05/13 05:35:03;;;;;;;2.75;1.20;;;;;;;16.46;nan;100838.50;5034436;28;20036;-81
2022/05/13 05:37:28;;;;;;;2.95;1.10;;;;;;;16.70;nan;100845.41;5045367;28;20030;-81
2022/05/13 05:39:54;;;;;;;2.58;0.95;;;;;;;17.05;nan;100845.72;5015351;28;20048;-82
2022/05/13 05:42:19;;;;;;;2.53;1.08;;;;;;;17.56;nan;100856.38;5045466;28;20052;-81
2022/05/13 05:44:45;;;;;;;4.32;1.48;;;;;;;17.94;nan;100856.16;5051434;28;20040;-81
2022/05/13 05:47:10;;;;;;;2.20;1.13;;;;;;;18.15;nan;100860.66;5062254;28;20044;-81
2022/05/13 05:49:36;;;;;;;3.45;1.10;;;;;;;18.34;nan;100864.53;5047096;28;20069;-82
2022/05/13 05:52:01;;;;;;;2.88;1.20;;;;;;;18.57;nan;100872.31;5044707;28;20037;-82
2022/05/13 05:57:14;;;;;;;3.88;1.60;;;;;;;18.97;nan;100872.56;5048442;28;20048;-81
2022/05/13 05:59:44;;;;;;;2.60;1.35;;;;;;;19.03;nan;100882.50;5054040;28;20129;-82
2022/05/13 06:02:10;;;;;;;4.00;1.70;;;;;;;19.20;nan;100883.00;5030604;28;20041;-81
2022/05/13 06:04:36;;;;;;;3.30;1.73;;;;;;;19.37;nan;100894.19;5033956;28;20060;-81
2022/05/13 06:07:07;;;;;;;4.00;1.65;;;;;;;19.33;nan;100885.72;5044532;28;20030;-81
2022/05/13 06:09:33;;;;;;;2.33;1.20;;;;;;;19.37;nan;100894.19;5014535;28;20045;-81
2022/05/13 06:11:58;;;;;;;4.57;1.50;;;;;;;19.37;nan;100896.88;5050594;28;20079;-83
2022/05/13 06:14:24;;;;;;;3.95;1.30;;;;;;;19.33;nan;100892.94;5053160;28;20034;-81
2022/05/13 06:16:49;;;;;;;3.20;1.30;;;;;;;19.47;nan;100895.47;5022708;28;20097;-82
2022/05/13 06:19:15;;;;;;;2.80;1.30;;;;;;;19.57;nan;100900.47;5046888;28;20047;-81
2022/05/13 06:21:40;;;;;;;4.03;1.45;;;;;;;19.67;nan;100905.44;5052220;28;20037;-82
2022/05/13 06:24:06;;;;;;;2.92;1.00;;;;;;;20.13;nan;100910.06;5043782;28;20332;-82
2022/05/13 06:26:32;;;;;;;3.38;1.30;;;;;;;20.20;nan;100920.84;5055891;28;20040;-82
2022/05/13 06:28:58;;;;;;;3.88;1.35;;;;;;;20.24;nan;100912.16;5025824;28;20037;-82
2022/05/13 06:31:24;;;;;;;4.93;1.27;;;;;;;20.57;nan;100920.25;5040098;28;20042;-82
2022/05/13 06:33:50;;;;;;;2.92;1.00;;;;;;;20.88;nan;100926.81;5058329;28;20033;-82
2022/05/13 06:36:16;;;;;;;2.95;1.02;;;;;;;21.03;nan;100923.06;5047539;28;20033;-82
2022/05/13 06:38:41;;;;;;;2.67;1.25;;;;;;;21.27;nan;100935.78;5018954;28;20045;-82
2022/05/13 06:41:06;;;;;;;5.03;1.35;;;;;;;21.50;nan;100939.88;5033650;28;20060;-82
2022/05/13 06:43:32;;;;;;;4.72;1.42;;;;;;;21.43;nan;100948.00;5048786;28;20055;-82
2022/05/13 06:45:57;;;;;;;2.30;1.02;;;;;;;21.92;nan;100951.03;5030962;28;20503;-82
2022/05/13 06:48:23;;;;;;;6.15;1.17;;;;;;;21.63;nan;100951.41;5052137;28;20036;-82
2022/05/13 06:50:49;;;;;;;4.03;1.33;;;;;;;21.48;nan;100952.72;5050886;28;20033;-82
2022/05/13 06:53:18;;;;;;;2.70;1.10;;;;;;;21.41;nan;100948.19;5020961;28;20113;-82
2022/05/13 06:55:44;;;;;;;3.20;1.30;;;;;;;21.19;nan;100950.31;5036944;28;20045;-82
2022/05/13 06:58:10;;;;;;;4.78;1.40;;;;;;;21.00;nan;100957.38;5026757;28;20490;-82
2022/05/13 07:00:36;;;;;;;2.58;1.27;;;;;;;20.95;nan;100950.97;5025805;28;20090;-82
2022/05/13 07:03:01;;;;;;;2.60;1.10;;;;;;;20.83;nan;100952.66;5045309;28;20101;-82
2022/05/13 07:05:27;;;;;;;3.70;1.23;;;;;;;20.65;nan;100954.13;5037958;28;20112;-83
2022/05/13 07:07:53;;;;;;;2.15;0.90;;;;;;;20.67;nan;100952.06;5045229;28;20021;-82
2022/05/13 07:10:20;;;;;;;3.22;1.02;;;;;;;20.84;nan;100959.69;5031469;28;20506;-82
2022/05/13 07:12:46;;;;;;;2.45;1.20;;;;;;;21.19;nan;100949.50;5047357;28;20048;-80
2022/05/13 07:15:15;;;;;;;1.65;0.85;;;;;;;21.19;nan;100947.63;5065844;28;20045;-80
2022/05/13 07:17:41;;;;;;;2.75;1.35;;;;;;;21.41;nan;100950.88;5029016;28;20037;-82
2022/05/13 07:20:07;;;;;;;2.72;1.00;;;;;;;21.64;nan;100944.13;5046317;28;20116;-82
2022/05/13 07:22:34;;;;;;;3.38;1.00;;;;;;;22.04;nan;100950.13;5055515;28;20057;-82
2022/05/13 07:24:59;;;;;;;3.63;1.20;;;;;;;22.32;nan;100950.81;5041359;28;20045;-82
2022/05/13 07:27:25;;;;;;;6.97;1.33;;;;;;;22.68;nan;100947.38;5050797;28;20216;-82
2022/05/13 07:29:50;;;;;;;4.22;1.00;;;;;;;23.26;nan;100954.28;5057062;28;20309;-82
2022/05/13 07:32:15;;;;;;;3.13;1.10;;;;;;;23.84;nan;100971.88;5047342;28;20056;-82
2022/05/13 07:34:41;;;;;;;4.72;1.42;;;;;;;24.22;nan;100976.94;5021260;28;20112;-82
2022/05/13 07:37:06;;;;;;;5.18;1.30;;;;;;;24.29;nan;100980.34;5043986;28;20060;-82
2022/05/13 07:42:16;;;;;;;2.85;1.15;;;;;;;23.65;nan;100977.28;5039609;28;20136;-82
2022/05/13 07:44:41;;;;;;;5.38;1.10;;;;;;;23.88;nan;100981.16;5035825;28;20522;-82
2022/05/13 07:47:09;;;;;;;3.25;1.00;;;;;;;23.89;nan;100985.50;5037916;28;20041;-82
2022/05/13 07:49:37;;;;;;;4.38;1.10;;;;;;;24.16;nan;100985.94;5036704;28;20099;-82
2022/05/13 07:52:03;;;;;;;2.65;0.95;;;;;;;24.13;nan;100991.81;5049888;28;20034;-82
2022/05/13 07:54:28;;;;;;;2.85;1.02;;;;;;;24.26;nan;100988.09;5048740;28;20109;-81
2022/05/13 07:56:53;;;;;;;2.08;0.90;;;;;;;24.67;nan;100983.72;5036655;28;20033;-81
2022/05/13 07:59:20;;;;;;;2.33;0.90;;;;;;;25.25;nan;100979.38;5044295;28;20095;-82
2022/05/13 08:01:46;;;;;;;4.07;1.00;;;;;;;25.52;nan;100977.75;5032875;28;20068;-82
2022/05/13 08:04:12;;;;;;;2.30;0.90;;;;;;;25.96;nan;100980.81;5032401;28;20119;-83
2022/05/13 08:06:38;;;;;;;3.65;1.08;;;;;;;26.45;nan;100972.97;5062106;28;20029;-82
2022/05/13 08:09:03;;;;;;;3.92;1.33;;;;;;;26.86;nan;100979.06;5049284;28;20041;-82
2022/05/13 08:11:29;;;;;;;2.45;1.00;;;;;;;26.92;nan;100979.94;5049908;28;20032;-82
2022/05/13 08:13:56;;;;;;;3.30;1.10;;;;;;;26.64;nan;100972.75;5051982;28;20033;-82
2022/05/13 08:16:25;;;;;;;3.60;0.95;;;;;;;26.13;nan;100978.13;5037977;28;20234;-82
2022/05/13 08:18:51;;;;;;;5.10;1.05;;;;;;;25.93;nan;100975.84;5044064;28;20301;-82
2022/05/13 08:21:16;;;;;;;5.70;1.10;;;;;;;25.46;nan;100970.63;5042004;28;20599;-82
2022/05/13 08:23:42;;;;;;;3.03;1.25;;;;;;;25.55;nan;100980.00;5042611;28;20273;-82
2022/05/13 08:26:08;;;;;;;3.45;0.90;;;;;;;25.83;nan;100978.34;5043829;28;20033;-83
2022/05/13 08:28:39;;;;;;;2.83;1.00;;;;;;;26.43;nan;100977.84;5037794;28;20177;-82
2022/05/13 08:31:05;;;;;;;2.97;0.80;;;;;;;26.79;nan;100975.72;5045204;28;20521;-83
2022/05/13 08:33:30;;;;;;;3.08;0.98;;;;;;;26.90;nan;100973.94;5019486;28;20094;-83
2022/05/13 08:35:59;;;;;;;3.65;1.05;;;;;;;27.25;nan;100970.94;5044450;28;20076;-83
2022/05/13 08:38:27;;;;;;;3.83;1.30;;;;;;;28.03;nan;100975.34;5018211;28;20029;-83
2022/05/13 08:41:04;;;;;;;4.80;1.40;;;;;;;28.05;nan;100974.00;5042606;28;20034;-81
2022/05/13 08:43:37;;;;;;;2.83;0.80;;;;;;;28.51;nan;100970.91;5053966;28;20029;-82
2022/05/13 08:46:13;;;;;;;4.40;1.17;;;;;;;29.47;nan;100977.16;5026852;28;20483;-81
2022/05/13 08:48:47;;;;;;;4.15;1.15;;;;;;;29.42;nan;100978.78;5051121;28;20037;-82
2022/05/13 08:51:18;;;;;;;5.07;1.42;;;;;;;28.52;nan;100973.34;5049179;28;20037;-81
2022/05/13 08:54:15;;;;;;;2.97;1.10;;;;;;;28.75;nan;100974.06;5038911;28;20045;-82
2022/05/13 08:56:47;;;;;;;3.55;1.05;;;;;;;28.56;nan;100979.91;5024127;28;20029;-81
2022/05/13 08:59:28;;;;;;;3.78;1.00;;;;;;;28.36;nan;100975.13;5033540;28;20041;-82
2022/05/13 09:02:20;;;;;;;3.95;1.20;;;;;;;28.85;nan;100976.03;5050405;28;20033;-82
2022/05/13 09:04:51;;;;;;;4.13;1.40;;;;;;;29.07;nan;100982.16;5027512;28;20037;-81
2022/05/13 09:07:20;;;;;;;3.50;1.10;;;;;;;29.61;nan;100975.59;5042104;28;20048;-83
2022/05/13 09:09:50;;;;;;;2.58;0.98;;;;;;;29.46;nan;100981.78;5038016;28;20034;-82
2022/05/13 09:12:17;;;;;;;2.72;0.80;;;;;;;30.48;nan;100987.44;5033864;28;20030;-81
2022/05/13 09:14:58;;;;;;;2.10;0.73;;;;;;;31.46;nan;100982.63;5046361;28;20030;-82
2022/05/13 09:17:56;;;;;;;2.58;1.00;;;;;;;30.95;nan;100974.59;5038555;28;20069;-81
2022/05/13 09:20:24;;;;;;;5.28;1.48;;;;;;;29.48;nan;100978.78;5032910;28;20032;-84
2022/05/13 09:22:58;;;;;;;2.92;1.00;;;;;;;29.64;nan;100972.31;5046330;28;20025;-82
2022/05/13 09:25:42;;;;;;;2.95;0.98;;;;;;;30.78;nan;100974.06;5056038;28;20053;-81
2022/05/13 09:28:10;;;;;;;3.17;1.00;;;;;;;30.62;nan;100970.53;5041078;28;20083;-83
2022/05/13 09:30:39;;;;;;;5.45;1.17;;;;;;;31.36;nan;100968.16;5049867;28;20041;-83
2022/05/13 09:33:22;;;;;;;4.03;1.13;;;;;;;30.84;nan;100965.63;5023731;28;20029;-83
2022/05/13 09:35:51;;;;;;;3.72;1.10;;;;;;;31.18;nan;100972.31;5031802;28;20066;-82
2022/05/13 09:38:21;;;;;;;3.75;1.02;;;;;;;31.58;nan;100967.78;5044923;28;20037;-82
2022/05/13 09:40:56;;;;;;;3.00;0.93;;;;;;;31.81;nan;100974.50;5034497;28;20025;-82
2022/05/13 09:43:37;;;;;;;3.50;1.13;;;;;;;30.66;nan;100977.88;5037288;28;20063;-82
2022/05/13 09:46:04;;;;;;;;;;;;;;;31.30;nan;100970.09;5020079;28;20392;-82
2022/05/13 09:48:30;;;;;;;;;;;;;;;31.33;nan;100966.78;5042300;28;19920;-83
2022/05/13 09:50:55;;;;;;;2.47;0.90;;;;;;;31.76;nan;100958.94;5048138;28;20398;-83
2022/05/13 09:53:21;;;;;;;2.75;0.80;;;;;;;32.08;nan;100958.44;5026788;28;20041;-83
2022/05/13 09:55:47;;;;;;;2.87;1.00;;;;;;;31.64;nan;100961.19;5047977;28;20088;-83
2022/05/13 09:58:36;;;;;;;3.58;1.00;;;;;;;33.22;nan;100962.53;5040755;28;20092;-83
2022/05/13 10:01:13;;;;;;;4.03;1.02;;;;;;;33.79;nan;100951.63;5050464;28;20025;-83
2022/05/13 10:03:40;;;;;;;4.40;1.00;;;;;;;33.71;nan;100946.84;5035015;28;20026;-83
2022/05/13 10:06:08;;;;;;;2.55;1.05;;;;;;;31.97;nan;100947.91;5033450;28;20029;-83
2022/05/13 10:08:54;;;;;;;2.40;0.80;;;;;;;31.56;nan;100948.94;5033823;28;20033;-83
2022/05/13 10:14:25;;;;;;;4.88;1.10;;;;;;;31.70;nan;100938.19;5043496;28;20056;-82
2022/05/13 10:16:52;;;;;;;6.22;1.30;;;;;;;30.13;nan;100941.88;5026572;28;20034;-82
2022/05/13 10:19:28;;;;;;;3.80;1.08;;;;;;;31.70;nan;100930.81;5021537;28;20058;-82
2022/05/13 10:22:08;;;;;;;4.57;0.93;;;;;;;33.67;nan;100932.09;5027609;28;20442;-82
2022/05/13 10:24:46;;;;;;;3.58;1.17;;;;;;;33.67;nan;100926.59;5024633;28;20033;-81
2022/05/13 10:27:50;;;;;;;4.32;1.20;;;;;;;31.42;nan;100940.56;5038824;28;20034;-82
2022/05/13 10:30:32;;;;;;;4.57;1.30;;;;;;;32.51;nan;100938.66;5048736;28;20041;-82
2022/05/13 10:33:16;;;;;;;4.47;1.25;;;;;;;31.98;nan;100930.38;5046959;28;20041;-81
2022/05/13 10:36:01;;;;;;;3.38;1.15;;;;;;;29.92;nan;100926.59;5027223;28;20036;-81
2022/05/13 10:38:45;;;;;;;2.22;0.93;;;;;;;31.05;nan;100939.03;5049275;28;20041;-82
2022/05/13 10:41:28;;;;;;;9.15;1.40;;;;;;;32.94;nan;100936.84;5040989;28;20078;-82
2022/05/13 10:43:59;;;;;;;3.53;1.00;;;;;;;33.66;nan;100922.25;5045572;28;20029;-82
2022/05/13 10:46:35;;;;;;;4.22;1.75;;;;;;;33.50;nan;100923.53;5045752;28;20040;-83
2022/05/13 10:49:00;;;;;;;3.05;1.02;;;;;;;34.34;nan;100926.34;5039620;28;20057;-82
2022/05/13 10:51:34;;;;;;;4.68;0.98;;;;;;;35.01;nan;100925.09;5043501;28;20430;-82
2022/05/13 10:54:25;;;;;;;3.15;0.90;;;;;;;35.49;nan;100919.09;5042773;28;20083;-82
2022/05/13 10:57:15;;;;;;;4.43;0.90;;;;;;;36.00;nan;100923.41;5047505;28;20032;-83
2022/05/13 10:59:51;;;;;;;2.40;0.85;;;;;;;36.19;nan;100923.25;5019208;28;20708;-83
2022/05/13 11:02:50;;;;;;;3.10;0.80;;;;;;;36.87;nan;100926.63;5030675;28;20130;-83
2022/05/13 11:05:47;;;;;;;2.00;0.60;;;;;;;37.03;nan;100918.72;5028058;28;20053;-83
2022/05/13 11:08:30;;;;;;;2.53;0.95;;;;;;;37.85;nan;100918.97;5035614;28;20037;-82
2022/05/13 11:11:31;;;;;;;2.92;0.82;;;;;;;38.25;nan;100908.50;5025752;28;20033;-82
2022/05/13 11:14:08;;;;;;;2.38;0.90;;;;;;;39.35;nan;100907.78;5041888;28;20052;-82
2022/05/13 11:16:37;;;;;;;2.17;0.70;;;;;;;39.41;nan;100900.94;5021007;28;20037;-82
2022/05/13 11:19:20;;;;;;;3.53;1.05;;;;;;;38.96;nan;100903.53;5045054;28;20055;-83
2022/05/13 11:22:09;;;;;;;2.75;0.70;;;;;;;39.08;nan;100912.72;5047491;28;20029;-82
2022/05/13 11:27:56;;;;;;;1.70;0.70;;;;;;;39.24;nan;100899.09;5044924;28;20402;-81
2022/05/13 11:30:34;;;;;;;1.65;0.80;;;;;;;40.30;nan;100897.81;5038588;28;20092;-82
2022/05/13 11:33:01;;;;;;;2.50;0.90;;;;;;;40.81;nan;100902.22;5041902;28;20041;-82
2022/05/13 11:35:44;;;;;;;2.17;0.60;;;;;;;40.92;nan;100906.13;5045870;28;20045;-82
2022/05/13 11:38:20;;;;;;;3.15;0.70;;;;;;;39.94;nan;100897.72;5046362;28;20025;-82
2022/05/13 11:41:04;;;;;;;3.05;0.80;;;;;;;39.28;nan;100893.69;5033627;28;20099;-81
2022/05/13 11:43:38;;;;;;;3.47;0.70;;;;;;;38.17;nan;100887.28;5046318;28;20089;-81
2022/05/13 11:46:18;;;;;;;3.40;0.80;;;;;;;39.20;nan;100889.03;5035843;28;20040;-82
2022/05/13 11:48:47;;;;;;;3.50;1.00;;;;;;;40.49;nan;100901.97;5041496;28;20037;-81
2022/05/13 11:51:31;;;;;;;2.38;0.80;;;;;;;40.56;nan;100891.13;5028093;28;20041;-82
2022/05/13 11:53:59;;;;;;;2.72;1.00;;;;;;;40.36;nan;100890.09;5045198;28;20602;-81
2022/05/13 11:56:31;;;;;;;2.63;0.80;;;;;;;40.58;nan;100883.28;5037861;28;20038;-81
2022/05/13 11:58:58;;;;;;;1.85;0.70;;;;;;;40.66;nan;100882.31;5043350;28;20037;-83
2022/05/13 12:01:36;;;;;;;2.85;0.80;;;;;;;41.17;nan;100890.28;5020110;28;20064;-82
2022/05/13 12:04:13;;;;;;;2.58;0.90;;;;;;;41.53;nan;100892.16;5020245;28;20033;-82
2022/05/13 12:06:50;;;;;;;3.03;0.90;;;;;;;41.56;nan;100887.84;5039692;28;20148;-82
2022/05/13 12:09:36;;;;;;;3.15;0.80;;;;;;;41.41;nan;100881.06;5034898;28;20037;-82
2022/05/13 12:12:04;;;;;;;3.28;0.80;;;;;;;40.80;nan;100878.44;5034603;28;20045;-83
2022/05/13 12:14:48;;;;;;;3.45;0.70;;;;;;;39.14;nan;100879.31;5054051;28;20522;-83
2022/05/13 12:17:31;;;;;;;1.95;0.85;;;;;;;37.04;nan;100878.19;5042769;28;20045;-82
2022/05/13 12:20:25;;;;;;;2.20;0.73;;;;;;;36.19;nan;100873.69;5020413;28;20068;-82